Time;durP1;ratioP1;P1;durP2;ratioP2;P2;SDS_P1;SDS_P2;PMS_P1;PMS_P2;Temp;Humidity;BMP_temperature;BMP_pressure;BME280_temperature;BME280_humidity;BME280_pressure;Samples;Min_cycle;Max_cycle;Signal;HPM_P1;HPM_P2
2023/10/25 00:00:43;;;;;;;8.50;2.57;;;9.80;99.90;;;;;;5008634;28;20434;-72
2023/10/25 00:03:12;;;;;;;6.93;2.63;;;9.80;99.90;;;;;;5009398;28;20120;-72
2023/10/25 00:05:44;;;;;;;7.70;1.98;;;9.80;99.90;;;;;;5004802;28;20703;-72
2023/10/25 00:08:09;;;;;;;4.25;2.33;;;9.70;99.90;;;;;;5005655;28;20060;-72
2023/10/25 00:10:35;;;;;;;5.10;1.87;;;9.80;99.90;;;;;;5006425;28;20041;-72
2023/10/25 00:13:00;;;;;;;8.23;2.40;;;9.70;99.90;;;;;;5012537;28;20058;-72
2023/10/25 00:15:26;;;;;;;6.57;2.13;;;9.70;99.90;;;;;;5012075;28;20048;-72
2023/10/25 00:17:52;;;;;;;9.07;2.60;;;9.70;99.90;;;;;;4996860;28;20121;-72
2023/10/25 00:20:18;;;;;;;6.07;2.27;;;9.70;99.90;;;;;;5003258;28;20108;-72
2023/10/25 00:22:44;;;;;;;10.17;2.47;;;9.70;99.90;;;;;;5007264;28;20352;-72
2023/10/25 00:25:09;;;;;;;6.83;3.07;;;9.60;99.90;;;;;;4988370;28;20838;-72
2023/10/25 00:27:35;;;;;;;7.70;2.60;;;9.70;99.90;;;;;;5012012;28;20037;-72
2023/10/25 00:30:04;;;;;;;6.97;2.38;;;9.60;99.90;;;;;;5009865;28;20445;-72
2023/10/25 00:32:32;;;;;;;6.68;2.58;;;9.60;99.90;;;;;;5009646;28;20048;-72
2023/10/25 00:34:58;;;;;;;5.30;2.45;;;9.60;99.90;;;;;;5005776;28;20666;-72
2023/10/25 00:37:24;;;;;;;9.27;3.20;;;9.50;99.90;;;;;;5002290;28;20034;-72
2023/10/25 00:39:49;;;;;;;5.60;3.42;;;9.50;99.90;;;;;;5016885;28;20558;-72
2023/10/25 00:42:15;;;;;;;10.33;2.87;;;9.50;99.90;;;;;;5011677;28;20053;-72
2023/10/25 00:44:43;;;;;;;4.53;2.70;;;9.40;99.90;;;;;;5008167;28;20399;-72
2023/10/25 00:47:09;;;;;;;5.10;2.70;;;9.50;99.90;;;;;;5019883;28;20087;-72
2023/10/25 00:49:35;;;;;;;6.13;2.87;;;9.40;99.90;;;;;;5009349;28;20045;-72
2023/10/25 00:52:01;;;;;;;5.40;3.00;;;9.40;99.90;;;;;;5014366;28;20283;-72
2023/10/25 00:54:27;;;;;;;6.60;2.85;;;9.40;99.90;;;;;;4994339;28;20082;-72
2023/10/25 00:56:55;;;;;;;6.80;3.17;;;9.40;99.90;;;;;;5009955;28;20099;-72
2023/10/25 00:59:22;;;;;;;4.55;2.90;;;9.40;99.90;;;;;;5009262;28;20589;-72
2023/10/25 01:01:49;;;;;;;6.18;2.78;;;9.40;99.90;;;;;;5007690;28;20034;-72
2023/10/25 01:04:15;;;;;;;14.18;3.60;;;9.40;99.90;;;;;;4983979;28;20088;-72
2023/10/25 01:06:41;;;;;;;6.43;3.00;;;9.30;99.90;;;;;;5004767;28;20596;-72
2023/10/25 01:09:07;;;;;;;8.13;3.30;;;9.30;99.90;;;;;;5007761;28;20080;-72
2023/10/25 01:11:33;;;;;;;8.10;3.25;;;9.30;99.90;;;;;;5009385;28;20045;-72
2023/10/25 01:13:59;;;;;;;7.97;3.30;;;9.30;99.90;;;;;;5011988;28;20061;-72
2023/10/25 01:16:24;;;;;;;7.60;3.03;;;9.30;99.90;;;;;;5012136;28;20055;-72
2023/10/25 01:18:50;;;;;;;10.47;3.43;;;9.20;99.90;;;;;;5018127;28;20042;-72
2023/10/25 01:21:16;;;;;;;5.90;2.90;;;9.20;99.90;;;;;;5023392;28;20063;-72
2023/10/25 01:23:41;;;;;;;5.13;3.22;;;9.20;99.90;;;;;;5019227;28;20465;-72
2023/10/25 01:26:10;;;;;;;7.80;3.40;;;9.20;99.90;;;;;;4998785;28;20077;-72
2023/10/25 01:28:35;;;;;;;5.43;3.23;;;9.10;99.90;;;;;;5022684;28;20180;-72
2023/10/25 01:31:02;;;;;;;8.07;3.17;;;9.20;99.90;;;;;;5021008;28;20092;-72
2023/10/25 01:33:30;;;;;;;;;;;9.20;99.90;;;;;;5012974;28;20037;-72
2023/10/25 01:35:56;;;;;;;7.95;3.20;;;9.20;99.90;;;;;;5022617;28;19916;-72
2023/10/25 01:38:22;;;;;;;8.40;3.67;;;9.20;99.90;;;;;;5000743;28;20402;-72
2023/10/25 01:40:47;;;;;;;7.07;4.03;;;9.20;99.90;;;;;;5020209;28;20482;-72
2023/10/25 01:43:19;;;;;;;6.03;3.13;;;9.20;99.90;;;;;;5014135;28;20454;-72
2023/10/25 01:45:47;;;;;;;10.18;3.90;;;9.20;99.90;;;;;;5015127;28;20486;-72
2023/10/25 01:48:13;;;;;;;8.00;3.20;;;9.10;99.90;;;;;;5014485;28;20042;-72
2023/10/25 01:50:38;;;;;;;11.03;3.33;;;9.10;99.90;;;;;;5019013;28;20560;-72
2023/10/25 01:53:07;;;;;;;7.20;3.20;;;9.10;99.90;;;;;;5013078;28;20065;-72
2023/10/25 01:55:32;;;;;;;9.82;3.20;;;9.10;99.90;;;;;;5019317;28;20069;-72
2023/10/25 01:58:00;;;;;;;15.10;4.37;;;9.10;99.90;;;;;;5017607;28;20470;-72
2023/10/25 02:00:25;;;;;;;5.90;3.42;;;9.10;99.90;;;;;;5011453;28;20132;-72
2023/10/25 02:02:51;;;;;;;6.70;3.43;;;9.10;99.90;;;;;;5023259;28;20235;-72
2023/10/25 02:05:17;;;;;;;11.60;3.77;;;9.10;99.90;;;;;;5019040;28;20059;-72
2023/10/25 02:07:42;;;;;;;9.40;3.40;;;9.00;99.90;;;;;;5012325;28;20045;-72
2023/10/25 02:10:08;;;;;;;8.23;3.60;;;9.00;99.90;;;;;;5011290;28;20044;-72
2023/10/25 02:12:34;;;;;;;5.78;3.13;;;9.00;99.90;;;;;;5009520;28;20489;-72
2023/10/25 02:15:00;;;;;;;8.07;3.50;;;9.00;99.90;;;;;;5013199;28;20045;-72
2023/10/25 02:17:25;;;;;;;13.48;4.50;;;9.00;99.90;;;;;;5002343;28;20076;-72
2023/10/25 02:19:51;;;;;;;7.37;3.67;;;9.00;99.90;;;;;;5015144;28;20041;-72
2023/10/25 02:22:16;;;;;;;7.97;3.87;;;9.00;99.90;;;;;;5012188;28;20071;-72
2023/10/25 02:24:45;;;;;;;7.72;4.65;;;9.00;99.90;;;;;;5014141;28;20046;-74
2023/10/25 02:27:13;;;;;;;11.65;4.40;;;9.00;99.90;;;;;;4994323;28;20041;-72
2023/10/25 02:29:39;;;;;;;8.03;4.33;;;8.90;99.90;;;;;;5020581;28;20490;-72
2023/10/25 02:32:07;;;;;;;7.70;3.90;;;9.00;99.90;;;;;;5022860;28;20045;-72
2023/10/25 02:34:34;;;;;;;10.90;4.40;;;9.00;99.90;;;;;;5016187;28;20038;-72
2023/10/25 02:37:06;;;;;;;8.50;3.92;;;8.90;99.90;;;;;;5016749;28;20041;-72
2023/10/25 02:39:34;;;;;;;9.18;4.20;;;9.00;99.90;;;;;;5022694;28;20045;-72
2023/10/25 02:42:00;;;;;;;8.40;3.57;;;9.00;99.90;;;;;;5018584;28;20057;-72
2023/10/25 02:44:25;;;;;;;10.37;3.93;;;9.00;99.90;;;;;;5015890;28;20089;-72
2023/10/25 02:46:51;;;;;;;7.73;4.37;;;9.00;99.90;;;;;;5011779;28;20042;-72
2023/10/25 02:49:17;;;;;;;10.07;4.07;;;8.90;99.90;;;;;;5016432;28;20412;-72
2023/10/25 02:51:45;;;;;;;7.77;4.47;;;8.90;99.90;;;;;;5021479;28;20046;-72
2023/10/25 02:54:11;;;;;;;9.10;4.40;;;8.90;99.90;;;;;;5015769;28;20117;-71
2023/10/25 02:56:39;;;;;;;8.20;3.97;;;8.90;99.90;;;;;;5011256;28;20117;-71
2023/10/25 02:59:04;;;;;;;7.97;4.07;;;8.90;99.90;;;;;;5014152;28;20041;-71
2023/10/25 03:01:30;;;;;;;12.10;4.70;;;8.90;99.90;;;;;;5011740;28;20036;-71
2023/10/25 03:03:56;;;;;;;8.33;4.47;;;8.90;99.90;;;;;;5011875;28;20034;-71
2023/10/25 03:06:22;;;;;;;11.27;4.18;;;8.90;99.90;;;;;;5009859;28;20048;-71
2023/10/25 03:08:48;;;;;;;11.35;4.85;;;8.90;99.90;;;;;;5016444;28;20046;-71
2023/10/25 03:11:13;;;;;;;10.40;4.57;;;8.90;99.90;;;;;;5012440;28;20422;-71
2023/10/25 03:13:39;;;;;;;7.47;3.70;;;8.90;99.90;;;;;;5014001;28;20406;-71
2023/10/25 03:16:05;;;;;;;10.87;4.50;;;8.90;99.90;;;;;;5019926;28;20053;-71
2023/10/25 03:18:32;;;;;;;11.80;4.47;;;8.90;99.90;;;;;;5017790;28;20477;-71
2023/10/25 03:21:02;;;;;;;14.23;4.90;;;8.90;99.90;;;;;;5010436;28;20041;-71
2023/10/25 03:23:32;;;;;;;11.10;4.68;;;8.90;99.90;;;;;;5015126;28;20045;-71
2023/10/25 03:26:08;;;;;;;9.88;5.07;;;8.90;99.90;;;;;;5012378;28;20252;-71
2023/10/25 03:28:37;;;;;;;9.45;4.38;;;8.90;99.90;;;;;;5014441;28;20037;-71
2023/10/25 03:31:09;;;;;;;11.65;6.07;;;8.90;99.90;;;;;;5010664;28;20083;-71
2023/10/25 03:33:36;;;;;;;11.07;5.32;;;8.90;99.90;;;;;;5016000;28;20299;-71
2023/10/25 03:36:01;;;;;;;12.13;5.35;;;8.90;99.90;;;;;;5013392;28;20041;-71
2023/10/25 03:38:27;;;;;;;11.60;5.30;;;8.90;99.90;;;;;;5016894;28;20043;-71
2023/10/25 03:41:05;;;;;;;10.52;6.10;;;8.90;99.90;;;;;;5016307;28;20390;-71
2023/10/25 03:43:35;;;;;;;8.73;4.90;;;8.90;99.90;;;;;;5035766;28;20474;-71
2023/10/25 03:46:08;;;;;;;16.10;6.03;;;8.90;99.90;;;;;;4995242;28;20411;-71
2023/10/25 03:48:34;;;;;;;16.08;6.15;;;8.90;99.90;;;;;;4995313;28;20037;-71
2023/10/25 03:51:07;;;;;;;13.65;5.80;;;8.90;99.90;;;;;;5019603;28;20052;-71
2023/10/25 03:53:37;;;;;;;12.43;6.18;;;8.90;99.90;;;;;;5015479;28;20057;-71
2023/10/25 03:56:03;;;;;;;11.73;5.72;;;8.90;99.90;;;;;;5013350;28;20068;-71
2023/10/25 03:58:29;;;;;;;14.30;6.32;;;8.90;99.90;;;;;;5013461;28;20045;-71
2023/10/25 04:00:58;;;;;;;18.87;6.83;;;8.90;99.90;;;;;;5013754;28;20042;-71
2023/10/25 04:03:24;;;;;;;13.20;6.30;;;8.90;99.90;;;;;;5011316;28;20053;-71
2023/10/25 04:05:50;;;;;;;11.77;6.00;;;8.90;99.90;;;;;;5017312;28;20029;-71
2023/10/25 04:08:15;;;;;;;13.13;6.53;;;8.90;99.90;;;;;;5013352;28;20033;-71
2023/10/25 04:10:41;;;;;;;12.38;6.03;;;8.90;99.90;;;;;;5011241;28;20054;-71
2023/10/25 04:13:07;;;;;;;18.37;7.33;;;8.90;99.90;;;;;;5008479;28;20048;-71
2023/10/25 04:15:35;;;;;;;12.27;6.90;;;8.90;99.90;;;;;;5014931;28;20280;-71
2023/10/25 04:18:03;;;;;;;12.35;6.68;;;8.90;99.90;;;;;;5017391;28;20050;-71
2023/10/25 04:20:41;;;;;;;10.27;6.55;;;8.90;99.90;;;;;;5016425;28;20041;-71
2023/10/25 04:23:09;;;;;;;;;;;8.90;99.90;;;;;;5016647;28;20660;-71
2023/10/25 04:25:35;;;;;;;13.00;6.50;;;8.80;99.90;;;;;;5015795;28;19922;-71
2023/10/25 04:28:03;;;;;;;17.92;7.32;;;8.80;99.90;;;;;;5019532;28;20034;-71
2023/10/25 04:30:29;;;;;;;19.33;6.00;;;8.70;99.90;;;;;;4993914;28;20382;-71
2023/10/25 04:32:59;;;;;;;14.13;6.93;;;8.70;99.90;;;;;;5015640;28;20045;-71
2023/10/25 04:35:25;;;;;;;12.43;6.47;;;8.70;99.90;;;;;;5020059;28;20054;-71
2023/10/25 04:37:51;;;;;;;17.90;6.25;;;8.70;99.90;;;;;;5012667;28;20034;-71
2023/10/25 04:40:19;;;;;;;10.57;5.87;;;8.70;99.90;;;;;;5017128;28;20676;-71
2023/10/25 04:42:46;;;;;;;11.85;5.80;;;8.70;99.90;;;;;;5017725;28;20046;-71
2023/10/25 04:45:12;;;;;;;17.20;6.45;;;8.60;99.90;;;;;;5015265;28;20424;-71
2023/10/25 04:47:37;;;;;;;13.98;6.95;;;8.60;99.90;;;;;;5006155;28;20069;-71
2023/10/25 04:50:06;;;;;;;15.50;6.40;;;8.60;99.90;;;;;;5011104;28;20128;-71
2023/10/25 04:52:32;;;;;;;14.07;6.45;;;8.60;99.90;;;;;;5016136;28;20038;-71
2023/10/25 04:55:01;;;;;;;10.07;6.13;;;8.60;99.90;;;;;;5008333;28;20117;-71
2023/10/25 04:57:29;;;;;;;12.75;6.32;;;8.60;99.90;;;;;;5021070;28;20579;-73
2023/10/25 04:59:54;;;;;;;14.38;6.15;;;8.60;99.90;;;;;;5019907;28;20501;-73
2023/10/25 05:02:24;;;;;;;10.67;5.43;;;8.50;99.90;;;;;;5011500;28;20037;-72
2023/10/25 05:04:50;;;;;;;16.15;5.82;;;8.50;99.90;;;;;;5015437;28;20038;-71
2023/10/25 05:07:16;;;;;;;11.57;6.47;;;8.60;99.90;;;;;;5016264;28;20042;-71
2023/10/25 05:09:41;;;;;;;9.90;5.25;;;8.50;99.90;;;;;;5016622;28;20125;-71
2023/10/25 05:12:08;;;;;;;11.13;5.75;;;8.50;99.90;;;;;;5020310;28;20316;-71
2023/10/25 05:14:34;;;;;;;10.15;4.97;;;8.50;99.90;;;;;;5013568;28;20041;-71
2023/10/25 05:17:04;;;;;;;7.30;4.93;;;8.50;99.90;;;;;;5013302;28;20057;-71
2023/10/25 05:19:30;;;;;;;12.20;5.85;;;8.50;99.90;;;;;;5020181;28;20053;-71
2023/10/25 05:21:56;;;;;;;13.30;5.40;;;8.50;99.90;;;;;;5017183;28;20444;-71
2023/10/25 05:24:22;;;;;;;17.45;5.88;;;8.40;99.90;;;;;;5019396;28;20167;-71
2023/10/25 05:26:48;;;;;;;11.55;5.43;;;8.40;99.90;;;;;;5018136;28;20045;-71
2023/10/25 05:29:14;;;;;;;7.60;4.72;;;8.40;99.90;;;;;;5020829;28;20069;-72
2023/10/25 05:31:43;;;;;;;12.38;4.90;;;8.40;99.90;;;;;;5020251;28;20041;-72
2023/10/25 05:34:10;;;;;;;9.57;5.30;;;8.40;99.90;;;;;;5014398;28;20998;-71
2023/10/25 05:36:36;;;;;;;9.18;5.47;;;8.40;99.90;;;;;;5012004;28;20145;-71
2023/10/25 05:39:02;;;;;;;11.30;5.53;;;8.40;99.90;;;;;;5017023;28;20528;-71
2023/10/25 05:41:29;;;;;;;;;;;8.30;99.90;;;;;;5000271;28;20502;-71
2023/10/25 05:44:23;;;;;;;10.48;5.13;;;8.30;99.90;;;;;;5008916;28;19917;-71
2023/10/25 05:46:49;;;;;;;9.98;5.05;;;8.20;99.90;;;;;;5015685;28;20171;-71
2023/10/25 05:49:15;;;;;;;8.37;4.70;;;8.30;99.90;;;;;;5016005;28;20137;-71
2023/10/25 05:51:41;;;;;;;10.05;5.03;;;8.30;99.90;;;;;;5008432;28;20231;-73
2023/10/25 05:54:07;;;;;;;11.05;5.53;;;8.20;99.90;;;;;;5005605;28;20065;-72
2023/10/25 05:56:33;;;;;;;9.57;4.78;;;8.20;99.90;;;;;;5012564;28;20165;-71
2023/10/25 05:58:59;;;;;;;11.65;4.70;;;8.20;99.90;;;;;;5017241;28;20136;-75
2023/10/25 06:01:43;;;;;;;10.25;4.85;;;8.20;99.90;;;;;;5012117;28;20459;-72
2023/10/25 06:04:11;;;;;;;7.97;4.45;;;8.20;99.90;;;;;;5010314;28;20050;-72
2023/10/25 06:06:40;;;;;;;7.70;4.25;;;8.20;99.90;;;;;;5012050;28;20073;-71
2023/10/25 06:09:08;;;;;;;11.38;5.22;;;8.20;99.90;;;;;;5011972;28;20125;-71
2023/10/25 06:11:41;;;;;;;9.55;4.22;;;8.20;99.90;;;;;;5013892;28;20065;-72
2023/10/25 06:14:07;;;;;;;9.55;4.80;;;8.10;99.90;;;;;;5016507;28;20038;-71
2023/10/25 06:16:33;;;;;;;;;;;8.20;99.90;;;;;;5013581;28;20037;-72
2023/10/25 06:18:59;;;;;;;10.40;4.50;;;8.10;99.90;;;;;;5017824;28;19968;-72
2023/10/25 06:21:24;;;;;;;6.43;3.80;;;8.10;99.90;;;;;;5012695;28;20034;-72
2023/10/25 06:23:51;;;;;;;9.27;4.37;;;8.10;99.90;;;;;;5020436;28;20095;-71
2023/10/25 06:26:27;;;;;;;11.32;4.47;;;8.10;99.90;;;;;;5010405;28;20494;-72
2023/10/25 06:28:53;;;;;;;8.10;4.93;;;8.00;99.90;;;;;;5014265;28;20061;-72
2023/10/25 06:31:18;;;;;;;7.77;3.67;;;8.10;99.90;;;;;;5010028;28;20029;-72
2023/10/25 06:33:44;;;;;;;8.87;3.97;;;8.10;99.90;;;;;;5011070;28;20042;-72
2023/10/25 06:36:10;;;;;;;7.40;3.70;;;8.10;99.90;;;;;;4992010;28;20790;-72
2023/10/25 06:38:39;;;;;;;7.18;3.70;;;8.10;99.90;;;;;;5012234;28;20056;-72
2023/10/25 06:41:18;;;;;;;10.10;4.38;;;8.10;99.90;;;;;;5013396;28;20049;-72
2023/10/25 06:43:44;;;;;;;9.02;4.72;;;8.10;99.90;;;;;;5003575;28;20073;-72
2023/10/25 06:46:11;;;;;;;10.38;4.60;;;8.10;99.90;;;;;;5008928;28;20108;-72
2023/10/25 06:48:38;;;;;;;11.05;4.65;;;8.00;99.90;;;;;;5013020;28;20397;-72
2023/10/25 06:51:08;;;;;;;;;;;8.00;99.90;;;;;;5017197;28;20417;-72
2023/10/25 06:53:36;;;;;;;17.92;5.85;;;8.00;99.90;;;;;;4990400;28;19920;-72
2023/10/25 06:56:05;;;;;;;18.08;6.93;;;8.00;99.90;;;;;;5015168;28;20045;-72
2023/10/25 06:58:31;;;;;;;15.55;7.00;;;8.00;99.90;;;;;;5024724;28;20055;-72
2023/10/25 07:01:02;;;;;;;15.50;6.40;;;8.00;99.90;;;;;;5014076;28;20077;-71
2023/10/25 07:03:36;;;;;;;13.93;5.43;;;8.00;99.90;;;;;;5011170;28;20068;-72
2023/10/25 07:06:03;;;;;;;12.85;6.05;;;8.00;99.90;;;;;;5017668;28;20627;-72
2023/10/25 07:08:30;;;;;;;11.80;4.93;;;8.00;99.90;;;;;;4997970;28;20057;-72
2023/10/25 07:10:56;;;;;;;14.25;5.18;;;8.00;99.90;;;;;;5017736;28;20140;-71
2023/10/25 07:13:24;;;;;;;13.70;6.03;;;8.00;99.90;;;;;;5012261;28;20253;-71
2023/10/25 07:15:50;;;;;;;8.88;5.22;;;8.00;99.90;;;;;;5009877;28;20048;-71
2023/10/25 07:18:16;;;;;;;8.02;4.22;;;8.00;99.90;;;;;;5016489;28;20103;-71
2023/10/25 07:20:41;;;;;;;8.67;4.60;;;8.00;99.90;;;;;;5009916;28;20061;-72
2023/10/25 07:23:08;;;;;;;7.57;3.90;;;8.00;99.90;;;;;;5007211;28;20741;-72
2023/10/25 07:25:34;;;;;;;8.52;3.65;;;8.00;99.90;;;;;;5015690;28;20064;-72
2023/10/25 07:28:00;;;;;;;8.00;4.50;;;8.00;99.90;;;;;;5011303;28;20094;-71
2023/10/25 07:30:29;;;;;;;11.13;4.45;;;8.00;99.90;;;;;;5014458;28;20081;-72
2023/10/25 07:32:54;;;;;;;9.95;4.15;;;8.00;99.90;;;;;;5014382;28;20045;-72
2023/10/25 07:35:21;;;;;;;12.13;5.23;;;8.00;99.90;;;;;;5021497;28;20041;-72
2023/10/25 07:37:46;;;;;;;10.95;4.07;;;8.00;99.90;;;;;;5015859;28;20073;-72
2023/10/25 07:40:12;;;;;;;15.47;4.80;;;8.00;99.90;;;;;;5000190;28;21883;-72
2023/10/25 07:42:38;;;;;;;11.97;4.27;;;8.00;99.90;;;;;;5015906;28;20171;-72
2023/10/25 07:45:04;;;;;;;9.43;4.47;;;8.00;99.90;;;;;;5018848;28;20281;-72
2023/10/25 07:47:29;;;;;;;10.32;4.10;;;8.00;99.90;;;;;;5012633;28;20038;-72
2023/10/25 07:49:55;;;;;;;8.87;4.43;;;8.00;99.90;;;;;;5015618;28;20072;-72
2023/10/25 07:52:23;;;;;;;7.63;4.07;;;8.10;99.90;;;;;;5009770;28;20050;-72
2023/10/25 07:54:49;;;;;;;8.32;4.28;;;8.10;99.90;;;;;;5017158;28;20052;-72
2023/10/25 07:57:15;;;;;;;13.07;4.32;;;8.10;99.90;;;;;;5014066;28;20041;-72
2023/10/25 07:59:40;;;;;;;13.60;5.40;;;8.10;99.90;;;;;;5008113;28;20053;-72
2023/10/25 08:02:06;;;;;;;7.67;4.30;;;8.20;99.90;;;;;;5013298;28;20053;-72
2023/10/25 08:04:32;;;;;;;10.80;4.38;;;8.20;99.90;;;;;;5012891;28;20296;-72
2023/10/25 08:06:59;;;;;;;9.60;5.13;;;8.20;99.90;;;;;;5012681;28;20053;-72
2023/10/25 08:09:24;;;;;;;12.13;5.43;;;8.30;99.90;;;;;;5014990;28;20050;-72
2023/10/25 08:11:52;;;;;;;10.53;4.97;;;8.30;99.90;;;;;;5016667;28;20060;-72
2023/10/25 08:14:18;;;;;;;10.95;5.35;;;8.40;99.90;;;;;;5017916;28;20069;-72
2023/10/25 08:16:44;;;;;;;8.30;4.03;;;8.40;99.90;;;;;;5014949;28;20529;-72
2023/10/25 08:19:10;;;;;;;12.23;3.65;;;8.40;99.90;;;;;;5007725;28;20098;-72
2023/10/25 08:21:36;;;;;;;7.50;4.37;;;8.50;99.90;;;;;;5013399;28;20037;-72
2023/10/25 08:24:05;;;;;;;7.47;3.70;;;8.50;99.90;;;;;;5012182;28;20188;-71
2023/10/25 08:26:34;;;;;;;8.35;4.38;;;8.60;99.90;;;;;;4996347;28;20045;-71
2023/10/25 08:29:01;;;;;;;7.78;3.88;;;8.60;99.90;;;;;;5017804;28;20117;-72
2023/10/25 08:31:27;;;;;;;11.30;5.40;;;8.70;99.90;;;;;;5008092;28;23711;-72
2023/10/25 08:33:53;;;;;;;7.15;4.20;;;8.80;99.90;;;;;;4988220;28;20037;-72
2023/10/25 08:36:19;;;;;;;8.53;4.70;;;8.80;99.90;;;;;;5006751;28;20051;-72
2023/10/25 08:38:44;;;;;;;8.90;4.63;;;8.80;99.90;;;;;;5015250;28;20304;-72
2023/10/25 08:41:10;;;;;;;10.47;4.60;;;8.90;99.90;;;;;;5015204;28;20045;-72
2023/10/25 08:43:37;;;;;;;10.57;4.53;;;8.90;99.90;;;;;;5008334;28;20045;-73
2023/10/25 08:46:05;;;;;;;9.18;4.35;;;9.00;99.90;;;;;;5016943;28;20453;-72
2023/10/25 08:48:31;;;;;;;11.02;4.45;;;9.00;99.90;;;;;;5010858;28;20121;-72
2023/10/25 08:50:58;;;;;;;16.67;4.95;;;9.00;99.90;;;;;;5012956;28;20041;-72
2023/10/25 08:53:25;;;;;;;10.98;4.28;;;9.10;99.90;;;;;;5012538;28;20413;-72
2023/10/25 08:55:52;;;;;;;14.70;5.35;;;9.10;99.90;;;;;;5007142;28;20042;-72
2023/10/25 08:58:19;;;;;;;15.93;6.38;;;9.20;99.90;;;;;;5013755;28;20042;-72
2023/10/25 09:00:45;;;;;;;8.50;4.80;;;9.20;99.90;;;;;;5003417;28;20527;-72
2023/10/25 09:03:32;;;;;;;10.40;5.60;;;9.30;99.90;;;;;;5013391;28;20088;-72
2023/10/25 09:05:59;;;;;;;9.57;4.45;;;9.30;99.90;;;;;;5015064;28;20411;-77
2023/10/25 09:08:25;;;;;;;10.63;4.70;;;9.40;99.90;;;;;;5013723;28;20104;-74
2023/10/25 09:11:01;;;;;;;9.87;4.80;;;9.50;99.90;;;;;;5006340;28;20103;-72
2023/10/25 09:13:30;;;;;;;6.20;3.40;;;9.50;99.90;;;;;;4994375;28;20104;-72
2023/10/25 09:16:07;;;;;;;9.90;4.30;;;9.50;99.90;;;;;;5016694;28;20136;-72
2023/10/25 09:18:34;;;;;;;;;;;9.60;99.90;;;;;;5018327;28;20045;-72
2023/10/25 09:21:01;;;;;;;7.65;3.78;;;9.60;99.90;;;;;;5015712;28;20374;-72
2023/10/25 09:23:28;;;;;;;9.93;4.30;;;9.70;99.90;;;;;;5006220;28;20056;-72
2023/10/25 09:25:55;;;;;;;7.95;4.10;;;9.70;99.90;;;;;;5018707;28;20045;-72
2023/10/25 09:28:28;;;;;;;5.80;3.88;;;9.70;99.90;;;;;;5010905;28;20050;-72
2023/10/25 09:30:58;;;;;;;7.65;3.65;;;9.80;99.90;;;;;;5010280;28;20493;-72
2023/10/25 09:33:27;;;;;;;7.10;3.90;;;9.80;99.90;;;;;;5013358;28;20042;-72
2023/10/25 09:35:53;;;;;;;6.53;3.50;;;9.80;99.90;;;;;;5011375;28;20053;-72
2023/10/25 09:38:19;;;;;;;7.57;3.97;;;9.80;99.90;;;;;;5012693;28;20038;-72
2023/10/25 09:40:49;;;;;;;6.90;3.50;;;9.90;99.90;;;;;;5018327;28;20797;-72
2023/10/25 09:43:18;;;;;;;7.78;3.92;;;9.90;99.90;;;;;;5017256;28;20410;-72
2023/10/25 09:45:49;;;;;;;6.05;3.60;;;10.00;99.90;;;;;;5008626;28;20399;-72
2023/10/25 09:48:16;;;;;;;9.10;3.88;;;10.00;99.90;;;;;;5014690;28;20041;-72
2023/10/25 09:51:08;;;;;;;11.77;3.72;;;10.10;99.90;;;;;;5018721;28;20045;-72
2023/10/25 09:54:09;;;;;;;7.55;3.70;;;10.10;99.90;;;;;;5020578;28;20505;-72
2023/10/25 09:56:35;;;;;;;7.63;4.03;;;10.10;99.90;;;;;;5015856;28;20076;-72
2023/10/25 09:59:04;;;;;;;5.07;3.40;;;10.20;99.90;;;;;;5007654;28;20056;-72
2023/10/25 10:01:30;;;;;;;7.95;3.45;;;10.30;99.90;;;;;;5012491;28;20042;-72
2023/10/25 10:04:17;;;;;;;9.00;3.65;;;10.30;99.90;;;;;;5014103;28;20053;-72
2023/10/25 10:07:02;;;;;;;6.22;3.50;;;10.30;99.90;;;;;;5009492;28;20064;-72
2023/10/25 10:09:41;;;;;;;8.05;3.33;;;10.40;99.90;;;;;;5006174;28;20066;-72
2023/10/25 10:12:07;;;;;;;6.30;3.47;;;10.40;99.90;;;;;;5020666;28;20056;-72
2023/10/25 10:14:35;;;;;;;;;;;10.50;99.90;;;;;;5023411;28;20414;-72
2023/10/25 10:17:05;;;;;;;;;;;10.50;99.90;;;;;;5022444;28;20285;-72
2023/10/25 10:19:32;;;;;;;7.15;3.45;;;10.50;99.90;;;;;;5019322;28;20284;-73
2023/10/25 10:22:13;;;;;;;8.77;4.10;;;10.60;99.90;;;;;;5021624;28;20060;-72
2023/10/25 10:24:53;;;;;;;8.15;3.40;;;10.60;99.90;;;;;;5014215;28;20076;-72
2023/10/25 10:27:41;;;;;;;9.68;3.58;;;10.60;99.90;;;;;;5014464;28;20501;-72
2023/10/25 10:30:29;;;;;;;7.68;3.97;;;10.70;99.90;;;;;;5016864;28;20045;-72
2023/10/25 10:32:56;;;;;;;8.73;3.80;;;10.70;99.90;;;;;;4996882;28;20046;-72
2023/10/25 10:35:22;;;;;;;11.35;3.58;;;10.80;99.90;;;;;;5010596;28;20516;-72
2023/10/25 10:37:57;;;;;;;7.78;3.53;;;10.90;99.90;;;;;;5012214;28;20312;-72
2023/10/25 10:40:24;;;;;;;7.53;4.20;;;10.90;99.90;;;;;;5017572;28;20081;-72
2023/10/25 10:42:49;;;;;;;6.20;3.50;;;10.90;99.90;;;;;;5002648;28;20562;-72
2023/10/25 10:45:18;;;;;;;6.65;3.38;;;11.00;99.90;;;;;;5016592;28;20137;-72
2023/10/25 10:47:47;;;;;;;8.60;3.97;;;11.10;99.90;;;;;;5019286;28;20041;-72
2023/10/25 10:50:21;;;;;;;9.25;3.83;;;11.10;99.90;;;;;;5021634;28;20819;-72
2023/10/25 10:52:48;;;;;;;9.15;4.00;;;11.10;99.90;;;;;;5009130;28;20053;-72
2023/10/25 10:55:15;;;;;;;10.35;4.18;;;11.10;99.90;;;;;;5023762;28;20405;-72
2023/10/25 10:57:41;;;;;;;5.85;3.50;;;11.20;99.90;;;;;;5015106;28;20091;-72
2023/10/25 11:00:09;;;;;;;7.82;4.03;;;11.20;99.90;;;;;;5014933;28;20049;-72
2023/10/25 11:02:36;;;;;;;9.07;3.47;;;11.30;99.90;;;;;;5007845;28;20049;-72
2023/10/25 11:05:03;;;;;;;7.65;3.75;;;11.30;99.90;;;;;;5015680;28;20037;-72
2023/10/25 11:07:29;;;;;;;9.98;3.85;;;11.30;99.90;;;;;;5020977;28;20041;-72
2023/10/25 11:09:55;;;;;;;9.07;4.03;;;11.40;99.90;;;;;;5013458;28;20050;-72
2023/10/25 11:12:20;;;;;;;10.18;3.78;;;11.40;99.90;;;;;;5016578;28;20275;-72
2023/10/25 11:14:47;;;;;;;8.13;3.63;;;11.40;99.90;;;;;;5024905;28;20056;-72
2023/10/25 11:17:13;;;;;;;10.20;4.13;;;11.50;99.90;;;;;;5010015;28;20053;-72
2023/10/25 11:19:40;;;;;;;10.10;4.05;;;11.50;99.90;;;;;;5006845;28;20114;-72
2023/10/25 11:22:06;;;;;;;8.68;3.75;;;11.50;99.90;;;;;;5015948;28;20037;-72
2023/10/25 11:24:35;;;;;;;6.43;4.25;;;11.50;99.90;;;;;;5015400;28;20103;-72
2023/10/25 11:27:02;;;;;;;9.20;3.95;;;11.60;99.90;;;;;;5008703;28;20089;-72
2023/10/25 11:29:28;;;;;;;7.68;3.53;;;11.50;99.90;;;;;;5012437;28;20367;-72
2023/10/25 11:31:55;;;;;;;8.43;4.13;;;11.50;99.90;;;;;;5015861;28;20402;-72
2023/10/25 11:34:22;;;;;;;12.63;3.75;;;11.60;99.90;;;;;;5012952;28;20186;-72
2023/10/25 11:36:48;;;;;;;6.03;3.65;;;11.50;99.90;;;;;;5007591;28;20041;-72
2023/10/25 11:39:14;;;;;;;8.48;3.58;;;11.60;99.90;;;;;;5012308;28;20133;-72
2023/10/25 11:41:42;;;;;;;11.30;4.25;;;11.60;99.90;;;;;;5007199;28;20136;-72
2023/10/25 11:44:08;;;;;;;6.90;3.80;;;11.70;99.90;;;;;;5014922;28;20051;-72
2023/10/25 11:46:38;;;;;;;8.18;4.57;;;11.70;99.90;;;;;;5009242;28;20072;-72
2023/10/25 11:49:05;;;;;;;10.60;4.63;;;11.70;99.90;;;;;;5010454;28;20046;-72
2023/10/25 11:51:35;;;;;;;14.38;4.00;;;11.70;99.90;;;;;;5016815;28;20465;-72
2023/10/25 11:54:02;;;;;;;9.20;4.10;;;11.80;99.90;;;;;;5009955;28;20042;-72
2023/10/25 11:56:28;;;;;;;6.60;3.80;;;11.80;99.90;;;;;;5021265;28;20049;-73
2023/10/25 11:58:53;;;;;;;9.27;3.65;;;11.90;99.90;;;;;;5013558;28;20048;-72
2023/10/25 12:01:19;;;;;;;10.05;4.38;;;11.90;99.90;;;;;;5007016;28;20133;-72
2023/10/25 12:03:45;;;;;;;9.17;4.20;;;11.90;99.90;;;;;;5007324;28;20099;-72
2023/10/25 12:06:11;;;;;;;9.35;3.88;;;12.00;99.90;;;;;;5006780;28;20030;-72
2023/10/25 12:08:40;;;;;;;7.05;3.47;;;12.00;99.90;;;;;;5015633;28;20100;-72
2023/10/25 12:11:06;;;;;;;9.38;4.75;;;12.00;99.90;;;;;;5019468;28;20049;-72
2023/10/25 12:13:32;;;;;;;8.63;3.22;;;12.00;99.90;;;;;;5012048;28;20042;-72
2023/10/25 12:15:57;;;;;;;10.40;3.33;;;12.00;99.90;;;;;;5021227;28;20038;-72
2023/10/25 12:18:23;;;;;;;9.53;3.47;;;12.00;99.90;;;;;;4993634;28;20498;-72
2023/10/25 12:20:49;;;;;;;6.63;2.92;;;12.10;99.90;;;;;;5014734;28;20505;-72
2023/10/25 12:23:16;;;;;;;4.77;3.00;;;12.00;99.90;;;;;;5011046;28;20270;-72
2023/10/25 12:25:42;;;;;;;6.60;2.85;;;12.00;99.90;;;;;;5014875;28;20293;-72
2023/10/25 12:28:07;;;;;;;7.28;3.35;;;12.00;99.90;;;;;;5015537;28;20033;-72
2023/10/25 12:30:33;;;;;;;6.00;3.33;;;12.00;99.90;;;;;;5014063;28;20049;-72
2023/10/25 12:32:59;;;;;;;5.43;3.40;;;12.00;99.90;;;;;;5015744;28;20041;-72
2023/10/25 12:35:24;;;;;;;5.70;3.27;;;12.00;99.90;;;;;;5016349;28;20050;-72
2023/10/25 12:37:50;;;;;;;7.07;3.30;;;12.00;99.90;;;;;;5009595;28;20397;-72
2023/10/25 12:40:16;;;;;;;7.30;3.63;;;12.00;99.90;;;;;;5016681;28;20069;-72
2023/10/25 12:42:42;;;;;;;9.27;3.53;;;12.00;99.90;;;;;;5015290;28;20686;-72
2023/10/25 12:45:08;;;;;;;6.30;3.53;;;12.00;99.90;;;;;;5016455;28;20041;-72
2023/10/25 12:47:34;;;;;;;8.95;3.30;;;11.90;99.90;;;;;;5009925;28;20029;-72
2023/10/25 12:49:59;;;;;;;7.78;3.38;;;11.90;99.90;;;;;;5012372;28;20541;-72
2023/10/25 12:52:25;;;;;;;6.53;3.53;;;11.90;99.90;;;;;;5014857;28;20464;-72
2023/10/25 12:54:50;;;;;;;5.73;3.30;;;11.90;99.90;;;;;;5010202;28;20272;-72